createdAt,value
2022-08-09T00:00:21.023Z,12.45
2022-08-09T00:02:49.869Z,11.73
2022-08-09T00:06:17.654Z,11.57
2022-08-09T00:08:09.996Z,12.30
2022-08-09T00:10:41.269Z,11.00
2022-08-09T00:13:17.429Z,9.80
2022-08-09T00:15:59.508Z,9.95
2022-08-09T00:18:34.546Z,10.00
2022-08-09T00:21:07.988Z,10.55
2022-08-09T00:23:55.965Z,9.77
2022-08-09T00:26:32.664Z,8.90
2022-08-09T00:29:02.378Z,8.82
2022-08-09T00:31:57.217Z,9.57
2022-08-09T00:34:19.137Z,9.02
2022-08-09T00:36:50.044Z,10.30
2022-08-09T00:40:10.438Z,9.35
2022-08-09T00:44:15.308Z,9.88
2022-08-09T00:44:55.054Z,9.45
2022-08-09T00:47:25.003Z,8.70
2022-08-09T00:49:55.037Z,9.05
2022-08-09T00:55:00.096Z,9.40
2022-08-09T00:57:34.874Z,10.30
2022-08-09T01:00:21.438Z,10.30
2022-08-09T01:03:12.860Z,10.15
2022-08-09T01:05:54.580Z,10.07
2022-08-09T01:08:28.310Z,9.57
2022-08-09T01:11:19.938Z,9.35
2022-08-09T01:13:59.015Z,10.10
2022-08-09T01:16:39.808Z,10.07
2022-08-09T01:19:40.293Z,9.82
2022-08-09T01:22:22.219Z,10.55
2022-08-09T01:25:00.786Z,10.35
2022-08-09T01:27:29.255Z,11.13
2022-08-09T01:30:01.078Z,10.57
2022-08-09T01:32:46.249Z,11.93
2022-08-09T01:35:38.047Z,10.45
2022-08-09T01:38:15.487Z,11.38
2022-08-09T01:41:08.082Z,11.27
2022-08-09T01:43:51.161Z,10.98
2022-08-09T01:46:26.999Z,11.95
2022-08-09T01:49:10.023Z,11.18
2022-08-09T01:51:58.425Z,13.20
2022-08-09T01:54:41.014Z,12.68
2022-08-09T01:57:16.766Z,12.27
2022-08-09T01:59:52.019Z,12.23
2022-08-09T02:02:21.778Z,12.18
2022-08-09T02:04:49.167Z,11.63
2022-08-09T02:08:35.978Z,11.75
2022-08-09T02:10:10.805Z,10.82
2022-08-09T02:12:39.318Z,10.80
2022-08-09T02:15:07.978Z,11.23
2022-08-09T02:17:59.889Z,11.45
2022-08-09T02:20:26.416Z,10.57
2022-08-09T02:23:11.259Z,10.25
2022-08-09T02:25:42.459Z,10.43
2022-08-09T02:28:41.117Z,11.10
2022-08-09T02:31:21.939Z,10.40
2022-08-09T02:34:07.493Z,10.00
2022-08-09T02:36:41.976Z,10.88
2022-08-09T02:39:14.284Z,10.63
2022-08-09T02:42:12.970Z,10.70
2022-08-09T02:44:47.163Z,11.75
2022-08-09T02:47:15.494Z,13.68
2022-08-09T02:49:55.362Z,12.48
2022-08-09T02:52:35.348Z,13.82
2022-08-09T02:55:03.170Z,14.07
2022-08-09T02:58:00.310Z,13.18
2022-08-09T03:00:30.230Z,12.70
2022-08-09T03:02:58.260Z,12.25
2022-08-09T03:05:28.118Z,12.63
2022-08-09T03:07:56.080Z,13.75
2022-08-09T03:10:25.196Z,12.85
2022-08-09T03:12:52.778Z,12.80
2022-08-09T03:15:23.070Z,12.65
2022-08-09T03:17:53.865Z,12.88
2022-08-09T03:20:29.743Z,13.32
2022-08-09T03:22:58.383Z,13.43
2022-08-09T03:25:58.115Z,12.57
2022-08-09T03:28:15.151Z,12.30
2022-08-09T03:30:44.374Z,12.85
2022-08-09T03:33:19.121Z,12.15
2022-08-09T03:36:15.879Z,12.40
2022-08-09T03:38:42.139Z,12.23
2022-08-09T03:41:15.037Z,12.50
2022-08-09T03:44:03.606Z,12.50
2022-08-09T03:49:04.367Z,10.75
2022-08-09T03:51:55.142Z,10.32
2022-08-09T03:54:29.862Z,11.23
2022-08-09T03:57:00.282Z,11.55
2022-08-09T03:59:43.241Z,11.07
2022-08-09T04:02:14.912Z,10.45
2022-08-09T04:04:47.896Z,11.65
2022-08-09T04:07:18.348Z,10.80
2022-08-09T04:09:49.962Z,10.95
2022-08-09T04:12:33.208Z,10.07
2022-08-09T04:15:11.105Z,10.50
2022-08-09T04:17:42.367Z,10.43
2022-08-09T04:20:11.775Z,11.20
2022-08-09T04:22:41.271Z,10.77
2022-08-09T04:25:12.064Z,11.18
2022-08-09T04:27:48.946Z,10.23
2022-08-09T04:30:20.672Z,9.90
2022-08-09T04:32:48.270Z,9.40
2022-08-09T04:35:15.859Z,9.38
2022-08-09T04:37:46.248Z,9.75
2022-08-09T04:40:19.351Z,9.55
2022-08-09T04:42:56.745Z,9.52
2022-08-09T04:45:24.439Z,9.95
2022-08-09T04:48:03.102Z,9.02
2022-08-09T04:50:35.096Z,10.02
2022-08-09T04:53:13.607Z,9.65
2022-08-09T04:55:57.426Z,9.57
2022-08-09T04:58:27.109Z,10.90
2022-08-09T05:00:55.473Z,8.55
2022-08-09T05:03:40.571Z,9.60
2022-08-09T05:06:27.211Z,9.50
2022-08-09T05:09:00.201Z,8.65
2022-08-09T05:11:30.467Z,8.98
2022-08-09T05:13:59.991Z,8.95
2022-08-09T05:16:31.682Z,9.57
2022-08-09T05:19:00.472Z,9.23
2022-08-09T05:21:29.940Z,8.18
2022-08-09T05:24:01.701Z,8.50
2022-08-09T05:26:45.808Z,8.40
2022-08-09T05:29:21.233Z,9.23
2022-08-09T05:31:56.845Z,10.18
2022-08-09T05:34:30.926Z,7.95
2022-08-09T05:37:05.241Z,8.38
2022-08-09T05:39:43.139Z,7.68
2022-08-09T05:42:17.294Z,7.95
2022-08-09T05:44:51.328Z,8.05
2022-08-09T05:47:23.266Z,7.90
2022-08-09T05:50:26.746Z,8.27
2022-08-09T05:52:42.288Z,8.65
2022-08-09T05:55:20.908Z,7.18
2022-08-09T05:57:56.650Z,7.05
2022-08-09T06:00:30.101Z,7.65
2022-08-09T06:02:58.552Z,7.57
2022-08-09T06:05:50.099Z,7.78
2022-08-09T06:08:14.301Z,6.68
2022-08-09T06:10:47.261Z,7.20
2022-08-09T06:13:18.718Z,7.25
2022-08-09T06:15:52.331Z,7.65
2022-08-09T06:18:23.996Z,6.65
2022-08-09T06:20:54.554Z,7.55
2022-08-09T06:23:55.043Z,7.07
2022-08-09T06:26:12.456Z,7.03
2022-08-09T06:28:43.280Z,6.40
2022-08-09T06:33:40.981Z,6.25
2022-08-09T06:38:47.917Z,5.88
2022-08-09T06:41:20.474Z,6.85
2022-08-09T06:43:47.968Z,6.78
2022-08-09T06:46:39.640Z,6.93
2022-08-09T06:49:03.070Z,6.82
2022-08-09T06:51:31.038Z,6.55
2022-08-09T06:54:00.823Z,6.68
2022-08-09T06:56:30.851Z,6.60
2022-08-09T07:00:48.871Z,5.95
2022-08-09T07:01:53.548Z,6.65
2022-08-09T07:04:22.161Z,6.40
2022-08-09T07:06:53.156Z,5.90
2022-08-09T07:09:54.873Z,6.68
2022-08-09T07:12:13.788Z,6.68
2022-08-09T07:14:51.461Z,6.80
2022-08-09T07:17:23.903Z,6.45
2022-08-09T07:19:55.504Z,6.35
2022-08-09T07:22:39.527Z,6.50
2022-08-09T07:25:10.758Z,6.63
2022-08-09T07:27:42.675Z,6.15
2022-08-09T07:30:13.378Z,6.30
2022-08-09T07:32:41.567Z,5.78
2022-08-09T07:35:12.017Z,5.68
2022-08-09T07:37:43.444Z,7.03
2022-08-09T07:40:17.120Z,6.57
2022-08-09T07:42:59.022Z,7.03
2022-08-09T07:45:38.436Z,7.32
2022-08-09T07:48:28.585Z,6.32
2022-08-09T07:51:09.061Z,7.22
2022-08-09T07:54:04.897Z,6.53
2022-08-09T07:56:34.729Z,7.40
2022-08-09T07:59:08.778Z,7.22
2022-08-09T08:01:43.221Z,7.18
2022-08-09T08:04:20.670Z,6.70
2022-08-09T08:07:14.853Z,6.50
2022-08-09T08:09:54.935Z,6.82
2022-08-09T08:12:37.102Z,6.47
2022-08-09T08:15:17.401Z,7.30
2022-08-09T08:17:55.045Z,6.18
2022-08-09T08:20:29.521Z,6.60
2022-08-09T08:23:03.492Z,6.32
2022-08-09T08:25:44.681Z,6.28
2022-08-09T08:28:15.216Z,7.35
2022-08-09T08:30:46.797Z,6.63
2022-08-09T08:33:22.854Z,4.82
2022-08-09T08:36:00.039Z,6.07
2022-08-09T08:38:29.250Z,6.05
2022-08-09T08:40:57.020Z,5.80
2022-08-09T08:43:24.582Z,6.15
2022-08-09T08:46:09.993Z,4.88
2022-08-09T08:48:51.426Z,4.50
2022-08-09T08:51:19.395Z,4.22
2022-08-09T08:54:03.790Z,4.20
2022-08-09T08:56:38.781Z,4.65
2022-08-09T08:59:19.886Z,4.22
2022-08-09T09:01:53.385Z,4.53
2022-08-09T09:04:28.818Z,4.35
2022-08-09T09:06:58.126Z,4.82
2022-08-09T09:09:41.201Z,4.95
2022-08-09T09:12:18.029Z,5.00
2022-08-09T09:14:46.596Z,4.93
2022-08-09T09:17:16.589Z,4.43
2022-08-09T09:19:44.015Z,4.55
2022-08-09T09:22:16.780Z,3.50
2022-08-09T09:26:00.321Z,3.33
2022-08-09T09:28:04.055Z,3.85
2022-08-09T09:30:41.015Z,4.18
2022-08-09T09:33:15.683Z,3.97
2022-08-09T09:36:01.843Z,4.03
2022-08-09T09:38:57.450Z,4.38
2022-08-09T09:41:27.873Z,3.70
2022-08-09T09:44:11.419Z,4.30
2022-08-09T09:46:50.369Z,4.20
2022-08-09T09:49:32.289Z,4.75
2022-08-09T09:52:16.420Z,3.63
2022-08-09T09:55:16.547Z,3.35
2022-08-09T09:58:16.588Z,3.90
2022-08-09T10:00:54.935Z,4.03
2022-08-09T10:03:43.916Z,3.63
2022-08-09T10:06:12.562Z,4.38
2022-08-09T10:08:57.329Z,4.03
2022-08-09T10:12:00.779Z,4.45
2022-08-09T10:14:31.865Z,3.70
2022-08-09T10:17:39.905Z,4.22
2022-08-09T10:19:59.729Z,4.68
2022-08-09T10:22:35.154Z,4.07
2022-08-09T10:25:10.994Z,3.75
2022-08-09T10:27:57.198Z,4.93
2022-08-09T10:34:07.957Z,4.03
2022-08-09T10:36:03.503Z,3.88
2022-08-09T10:38:55.465Z,4.15
2022-08-09T10:41:20.690Z,3.95
2022-08-09T10:43:58.833Z,3.88
2022-08-09T10:46:47.606Z,4.15
2022-08-09T10:49:54.168Z,3.92
2022-08-09T10:53:11.393Z,3.15
2022-08-09T10:55:58.621Z,3.53
2022-08-09T10:58:31.027Z,3.67
2022-08-09T11:03:02.282Z,3.63
2022-08-09T11:04:28.488Z,3.65
2022-08-09T11:07:01.182Z,3.60
2022-08-09T11:09:38.045Z,3.40
2022-08-09T11:12:29.368Z,3.58
2022-08-09T11:15:18.947Z,3.38
2022-08-09T11:17:56.769Z,3.20
2022-08-09T11:20:49.632Z,3.22
2022-08-09T11:23:23.970Z,3.53
2022-08-09T11:25:57.500Z,3.28
2022-08-09T11:28:56.010Z,3.10
2022-08-09T11:31:48.778Z,3.10
2022-08-09T11:34:31.716Z,2.88
2022-08-09T11:36:59.377Z,2.50
2022-08-09T11:39:38.102Z,2.40
2022-08-09T11:42:09.432Z,2.08
2022-08-09T11:44:46.301Z,1.88
2022-08-09T11:47:14.391Z,1.75
2022-08-09T11:50:52.569Z,1.42
2022-08-09T11:53:16.368Z,1.35
2022-08-09T11:55:52.576Z,1.67
2022-08-09T11:58:32.278Z,1.85
2022-08-09T12:01:08.385Z,1.65
2022-08-09T12:03:55.822Z,1.63
2022-08-09T12:06:32.902Z,1.95
2022-08-09T12:09:19.287Z,1.70
2022-08-09T12:12:03.249Z,1.40
2022-08-09T12:14:36.805Z,1.90
2022-08-09T12:17:28.209Z,2.10
2022-08-09T12:20:03.826Z,1.50
2022-08-09T12:22:31.975Z,1.88
2022-08-09T12:25:15.932Z,1.30
2022-08-09T12:28:58.818Z,1.83
2022-08-09T12:30:38.173Z,2.10
2022-08-09T12:33:07.306Z,2.13
2022-08-09T12:35:41.068Z,2.17
2022-08-09T12:38:37.578Z,2.17
2022-08-09T12:41:07.315Z,2.03
2022-08-09T12:44:05.879Z,2.10
2022-08-09T12:46:24.145Z,2.72
2022-08-09T12:48:53.263Z,2.05
2022-08-09T12:51:52.456Z,2.47
2022-08-09T12:54:08.830Z,1.80
2022-08-09T12:56:48.754Z,2.00
2022-08-09T12:59:23.181Z,2.10
2022-08-09T13:01:59.604Z,2.65
2022-08-09T13:04:36.472Z,2.10
2022-08-09T13:07:16.688Z,1.90
2022-08-09T13:09:55.326Z,1.98
2022-08-09T13:12:23.488Z,2.10
2022-08-09T13:14:54.115Z,1.92
2022-08-09T13:17:58.763Z,2.17
2022-08-09T13:20:16.000Z,1.92
2022-08-09T13:25:42.056Z,2.10
2022-08-09T13:28:18.706Z,4.05
2022-08-09T13:32:13.653Z,2.40
2022-08-09T13:33:53.557Z,2.08
2022-08-09T13:36:24.762Z,2.28
2022-08-09T13:41:50.812Z,2.00
2022-08-09T13:42:11.938Z,2.08
2022-08-09T13:44:43.742Z,2.75
2022-08-09T13:47:31.486Z,2.50
2022-08-09T13:50:01.729Z,3.30
2022-08-09T13:52:30.102Z,2.00
2022-08-09T13:55:00.571Z,4.68
2022-08-09T13:57:39.641Z,2.22
2022-08-09T14:00:15.495Z,1.75
2022-08-09T14:03:04.905Z,2.20
2022-08-09T14:05:58.778Z,2.40
2022-08-09T14:08:19.947Z,2.40
2022-08-09T14:10:50.642Z,2.83
2022-08-09T14:14:15.718Z,2.80
2022-08-09T14:16:13.693Z,2.47
2022-08-09T14:18:45.513Z,2.35
2022-08-09T14:21:20.511Z,3.00
2022-08-09T14:23:55.413Z,2.88
2022-08-09T14:26:32.693Z,3.75
2022-08-09T14:29:07.774Z,2.45
2022-08-09T14:31:53.842Z,2.13
2022-08-09T14:34:30.990Z,2.30
2022-08-09T14:37:09.096Z,2.55
2022-08-09T14:39:45.204Z,3.03
2022-08-09T14:42:31.780Z,2.40
2022-08-09T14:46:40.481Z,3.72
2022-08-09T14:47:57.860Z,9.18
2022-08-09T14:50:31.447Z,6.53
2022-08-09T14:53:00.301Z,4.32
2022-08-09T14:55:32.119Z,3.00
2022-08-09T14:58:03.344Z,2.97
2022-08-09T15:00:34.467Z,2.40
2022-08-09T15:03:05.758Z,2.40
2022-08-09T15:05:33.382Z,2.38
2022-08-09T15:08:01.314Z,2.22
2022-08-09T15:10:29.218Z,2.17
2022-08-09T15:12:59.537Z,2.10
2022-08-09T15:15:29.089Z,2.17
2022-08-09T15:17:56.609Z,2.60
2022-08-09T15:21:57.607Z,2.60
2022-08-09T15:24:05.992Z,2.38
2022-08-09T15:26:00.438Z,2.70
2022-08-09T15:28:28.746Z,2.47
2022-08-09T15:31:14.562Z,2.28
2022-08-09T15:34:17.349Z,2.85
2022-08-09T15:36:33.251Z,2.50
2022-08-09T15:39:00.765Z,3.00
2022-08-09T15:41:31.486Z,2.70
2022-08-09T15:44:02.910Z,2.80
2022-08-09T15:46:34.347Z,2.97
2022-08-09T15:49:22.927Z,2.90
2022-08-09T15:52:04.566Z,3.58
2022-08-09T15:54:50.465Z,3.17
2022-08-09T15:57:35.100Z,2.85
2022-08-09T16:00:13.931Z,2.80
2022-08-09T16:02:53.717Z,2.60
2022-08-09T16:05:22.859Z,2.87
2022-08-09T16:07:50.678Z,2.85
2022-08-09T16:10:54.823Z,3.13
2022-08-09T16:13:20.948Z,2.60
2022-08-09T16:16:04.628Z,2.50
2022-08-09T16:18:45.241Z,2.67
2022-08-09T16:21:16.872Z,3.38
2022-08-09T16:23:54.861Z,3.03
2022-08-09T16:26:35.041Z,2.88
2022-08-09T16:29:11.555Z,3.00
2022-08-09T16:32:19.086Z,3.13
2022-08-09T16:34:55.942Z,3.22
2022-08-09T16:37:53.487Z,3.10
2022-08-09T16:40:12.462Z,3.45
2022-08-09T16:42:45.186Z,3.45
2022-08-09T16:45:18.734Z,2.80
2022-08-09T16:48:39.027Z,3.10
2022-08-09T16:50:38.893Z,3.35
2022-08-09T16:53:06.498Z,3.13
2022-08-09T16:55:58.269Z,3.75
2022-08-09T16:58:23.733Z,3.35
2022-08-09T17:00:51.070Z,3.25
2022-08-09T17:03:21.370Z,2.90
2022-08-09T17:08:44.380Z,2.78
2022-08-09T17:11:40.870Z,3.25
2022-08-09T17:14:25.857Z,3.65
2022-08-09T17:17:00.076Z,3.40
2022-08-09T17:19:46.410Z,4.00
2022-08-09T17:22:15.073Z,3.67
2022-08-09T17:24:47.875Z,3.85
2022-08-09T17:27:22.625Z,4.32
2022-08-09T17:29:51.524Z,4.07
2022-08-09T17:32:20.213Z,4.20
2022-08-09T17:35:03.954Z,3.97
2022-08-09T17:38:02.576Z,4.25
2022-08-09T17:40:28.660Z,4.10
2022-08-09T17:42:59.717Z,3.90
2022-08-09T17:46:02.168Z,4.63
2022-08-09T17:48:29.301Z,4.72
2022-08-09T17:51:06.528Z,4.13
2022-08-09T17:53:43.247Z,4.60
2022-08-09T17:56:18.392Z,4.68
2022-08-09T18:01:23.109Z,4.70
2022-08-09T18:03:54.642Z,4.90
2022-08-09T18:09:03.121Z,4.30
2022-08-09T18:11:46.966Z,4.10
2022-08-09T18:14:23.292Z,4.40
2022-08-09T18:16:55.636Z,4.68
2022-08-09T18:20:58.070Z,4.55
2022-08-09T18:22:16.661Z,4.15
2022-08-09T18:24:45.975Z,4.30
2022-08-09T18:27:49.239Z,4.50
2022-08-09T18:30:37.646Z,4.50
2022-08-09T18:32:54.427Z,4.93
2022-08-09T18:35:58.578Z,4.88
2022-08-09T18:38:11.766Z,4.80
2022-08-09T18:40:42.949Z,4.55
2022-08-09T18:43:12.727Z,4.47
2022-08-09T18:46:51.089Z,5.18
2022-08-09T18:48:30.419Z,5.13
2022-08-09T18:51:01.078Z,4.72
2022-08-09T18:53:56.586Z,5.13
2022-08-09T18:56:17.156Z,5.25
2022-08-09T18:58:47.801Z,5.50
2022-08-09T19:01:23.393Z,5.95
2022-08-09T19:04:05.937Z,5.32
2022-08-09T19:06:36.195Z,5.38
2022-08-09T19:09:13.630Z,5.97
2022-08-09T19:11:56.371Z,5.83
2022-08-09T19:14:29.520Z,6.15
2022-08-09T19:16:57.000Z,5.47
2022-08-09T19:19:28.045Z,5.93
2022-08-09T19:22:06.713Z,5.95
2022-08-09T19:25:09.796Z,6.05
2022-08-09T19:27:28.446Z,5.93
2022-08-09T19:30:22.565Z,5.93
2022-08-09T19:32:44.313Z,6.90
2022-08-09T19:35:11.593Z,5.75
2022-08-09T19:37:54.398Z,6.35
2022-08-09T19:40:24.032Z,7.43
2022-08-09T19:43:02.045Z,7.20
2022-08-09T19:45:39.103Z,6.78
2022-08-09T19:48:09.583Z,6.07
2022-08-09T19:50:49.250Z,6.40
2022-08-09T19:53:20.771Z,6.85
2022-08-09T19:56:03.205Z,7.00
2022-08-09T19:58:34.468Z,7.60
2022-08-09T20:01:01.830Z,6.43
2022-08-09T20:04:10.665Z,6.10
2022-08-09T20:06:23.704Z,6.80
2022-08-09T20:08:57.927Z,6.80
2022-08-09T20:11:43.098Z,6.45
2022-08-09T20:14:15.600Z,7.65
2022-08-09T20:16:53.214Z,6.78
2022-08-09T20:19:48.233Z,6.57
2022-08-09T20:22:14.521Z,7.25
2022-08-09T20:24:42.951Z,7.07
2022-08-09T20:27:21.498Z,7.25
2022-08-09T20:29:49.496Z,6.88
2022-08-09T20:32:30.750Z,7.50
2022-08-09T20:35:01.424Z,7.05
2022-08-09T20:38:19.563Z,7.55
2022-08-09T20:40:26.390Z,7.65
2022-08-09T20:43:00.048Z,7.60
2022-08-09T20:46:01.507Z,7.35
2022-08-09T20:48:21.207Z,7.10
2022-08-09T20:50:55.791Z,7.45
2022-08-09T20:53:37.652Z,7.22
2022-08-09T20:56:08.637Z,7.40
2022-08-09T20:58:36.371Z,8.10
2022-08-09T21:01:32.554Z,7.32
2022-08-09T21:05:48.912Z,6.93
2022-08-09T21:06:44.464Z,7.43
2022-08-09T21:09:14.062Z,7.95
2022-08-09T21:14:31.327Z,7.43
2022-08-09T21:17:00.469Z,7.35
2022-08-09T21:20:17.549Z,7.55
2022-08-09T21:22:35.907Z,8.55
2022-08-09T21:25:25.887Z,7.38
2022-08-09T21:28:07.275Z,7.32
2022-08-09T21:30:40.179Z,7.85
2022-08-09T21:33:08.737Z,7.50
2022-08-09T21:35:40.822Z,7.18
2022-08-09T21:38:21.016Z,7.70
2022-08-09T21:40:58.885Z,6.78
2022-08-09T21:43:56.122Z,7.85
2022-08-09T21:46:13.973Z,7.82
2022-08-09T21:48:42.601Z,7.75
2022-08-09T21:51:24.180Z,7.60
2022-08-09T21:54:02.485Z,7.28
2022-08-09T21:56:43.604Z,7.45
2022-08-09T21:59:17.077Z,7.68
2022-08-09T22:02:00.648Z,6.95
2022-08-09T22:04:55.391Z,7.68
2022-08-09T22:07:23.451Z,7.53
2022-08-09T22:10:06.681Z,7.10
2022-08-09T22:12:34.523Z,7.20
2022-08-09T22:15:02.747Z,7.20
2022-08-09T22:17:32.199Z,7.22
2022-08-09T22:20:00.581Z,8.02
2022-08-09T22:22:29.081Z,7.78
2022-08-09T22:26:05.377Z,7.97
2022-08-09T22:27:43.619Z,7.70
2022-08-09T22:30:11.576Z,7.80
2022-08-09T22:32:38.869Z,8.15
2022-08-09T22:36:01.086Z,7.63
2022-08-09T22:38:06.669Z,7.38
2022-08-09T22:40:35.272Z,7.87
2022-08-09T22:43:08.690Z,7.43
2022-08-09T22:48:15.662Z,7.85
2022-08-09T22:48:36.208Z,7.40
2022-08-09T22:51:10.893Z,8.15
2022-08-09T22:54:01.043Z,8.25
2022-08-09T22:56:33.602Z,8.27
2022-08-09T23:01:49.278Z,7.65
2022-08-09T23:04:17.253Z,8.00
2022-08-09T23:07:03.594Z,8.90
2022-08-09T23:09:39.491Z,8.25
2022-08-09T23:12:07.011Z,8.02
2022-08-09T23:14:39.242Z,9.05
2022-08-09T23:17:10.793Z,8.65
2022-08-09T23:20:01.130Z,8.88
2022-08-09T23:22:25.812Z,8.57
2022-08-09T23:24:53.075Z,8.73
2022-08-09T23:27:20.364Z,8.50
2022-08-09T23:29:47.633Z,9.15
2022-08-09T23:32:14.956Z,8.98
2022-08-09T23:34:42.647Z,8.70
2022-08-09T23:37:09.919Z,8.57
2022-08-09T23:39:37.281Z,9.05
2022-08-09T23:42:05.414Z,9.10
2022-08-09T23:44:32.682Z,9.07
2022-08-09T23:47:00.092Z,8.68
2022-08-09T23:49:27.526Z,9.25
2022-08-09T23:51:54.971Z,9.07
2022-08-09T23:54:23.061Z,9.38
2022-08-09T23:56:58.060Z,9.77
2022-08-09T23:59:25.823Z,9.63
